Latest Weather Observations for Warwick

IDQ60901

Issued at 11:51 pm EST Sunday 17 February 2019 (issued every 10 minutes, with the page automatically refreshed every 10 minutes)

About weather observations | Map of Brisbane area stations | Latest observations for Brisbane area | Other Formats
Station Details ID: 041525 Name: WARWICK Lat: -28.21 Lon: 152.10 Height: 475.4 m
Data from the previous 72 hours. | See also: Recent months at Warwick
Date/Time
EST
Temp
°C
App
Temp
°C
Dew
Point
°C
Rel
Hum
%
Delta-T
°C
Wind Press
QNH
hPa
Press
MSL
hPa
Rain since
9am
mm
Dir  Spd
km/h
Gust
km/h
Spd
kts
Gust
kts
17/11:30pm 19.6 19.8 14.7 73 2.9 ENE 7 9 4 5 1014.7 1012.1 0.0
17/11:00pm 20.2 19.6 14.7 70 3.3 ENE 11 17 6 9 1014.8 1012.2 0.0
17/10:30pm 21.0 19.6 14.5 66 3.9 ENE 15 22 8 12 1014.6 1012.0 0.0
17/10:00pm 21.4 20.8 14.6 65 4.1 ENE 11 19 6 10 1014.7 1012.1 0.0
17/09:30pm 21.9 20.8 14.2 61 4.6 ENE 13 22 7 12 1014.5 1011.9 0.0
17/09:00pm 22.5 20.4 13.7 57 5.2 ENE 17 26 9 14 1014.2 1011.6 0.0
17/08:30pm 23.2 20.8 12.8 52 6.1 ENE 17 24 9 13 1013.8 1011.2 0.0
17/08:00pm 24.2 21.8 12.6 48 6.8 ENE 17 24 9 13 1013.3 1010.6 0.0
17/07:30pm 25.2 22.8 12.7 45 7.4 ENE 17 22 9 12 1012.8 1010.1 0.0
17/07:00pm 25.7 24.9 10.9 39 8.5 ESE 6 11 3 6 1012.1 1009.5 0.0
17/06:30pm 27.1 26.2 11.3 37 9.2 ESE 7 15 4 8 1011.8 1009.2 0.0
17/06:00pm 28.6 26.7 10.4 32 10.5 SE 11 19 6 10 1011.5 1008.8 0.0
17/05:30pm 29.8 27.5 10.3 29 11.3 SE 13 19 7 10 1011.3 1008.6 0.0
17/05:00pm 30.3 27.5 9.9 28 11.8 SE 15 22 8 12 1011.2 1008.5 0.0
17/04:30pm 30.3 27.8 9.6 27 11.9 ESE 13 24 7 13 1011.2 1008.5 0.0
17/04:00pm 31.6 28.6 9.4 25 12.8 SE 15 32 8 17 1011.3 1008.6 0.0
17/03:30pm 30.7 27.9 8.7 25 12.5 SE 13 26 7 14 1011.5 1008.8 0.0
17/03:00pm 31.4 29.0 10.1 26 12.4 ESE 13 28 7 15 1011.8 1009.2 0.0
17/02:30pm 30.2 27.6 9.4 27 11.9 ESE 13 26 7 14 1012.2 1009.6 0.0
17/02:00pm 30.4 27.2 10.0 28 11.8 SSE 17 32 9 17 1012.8 1010.1 0.0
17/01:30pm 30.4 27.5 9.7 27 11.9 SE 15 28 8 15 1013.3 1010.6 0.0
17/01:00pm 30.3 27.0 9.6 27 11.9 SE 17 30 9 16 1013.8 1011.2 0.0
17/12:30pm 30.2 27.6 10.7 30 11.4 SSE 15 24 8 13 1014.2 1011.6 0.0
17/12:00pm 27.6 24.4 9.9 33 10.1 SE 17 30 9 16 1014.7 1012.1 0.0
17/11:30am 27.0 24.5 11.1 37 9.2 SE 15 24 8 13 1015.3 1012.6 0.0
17/11:00am 27.0 25.4 11.6 38 9.0 SE 11 22 6 12 1015.8 1013.2 0.0
17/10:30am 26.7 24.8 11.8 39 8.7 SE 13 22 7 12 1016.2 1013.6 0.0
17/10:00am 25.4 23.5 11.8 42 7.9 E 13 22 7 12 1016.6 1014.0 0.0
17/09:30am 24.7 22.6 11.3 43 7.7 ESE 13 19 7 10 1016.7 1014.1 0.0
17/09:00am 23.2 22.1 13.2 53 5.9 SE 11 22 6 12 1016.9 1014.3 0.0
17/08:30am 22.3 21.5 14.1 59 4.9 SE 11 19 6 10 1016.9 1014.3 0.0
17/08:00am 22.2 21.1 14.3 61 4.7 ESE 13 19 7 10 1016.8 1014.2 0.0
17/07:30am 20.3 19.3 14.6 70 3.4 SE 13 20 7 11 1016.7 1014.1 0.0
17/07:00am 18.6 17.3 14.7 78 2.3 SE 15 20 8 11 1016.5 1013.9 0.0
17/06:30am 16.3 16.5 14.1 87 1.3 NE 6 9 3 5 1016.4 1013.8 0.0
17/06:00am 14.6 14.4 13.0 90 0.9 NE 6 9 3 5 1016.1 1013.5 0.0
17/05:30am 14.9 14.5 13.1 89 1.0 NE 7 11 4 6 1015.9 1013.3 0.0
17/05:00am 15.2 14.9 13.4 89 1.0 SE 7 11 4 6 1015.5 1012.8 0.0
17/04:30am 14.3 15.1 12.7 90 0.9 CALM 0 2 0 1 1015.5 1012.8 0.0
17/04:00am 15.3 16.0 13.4 88 1.1 E 2 7 1 4 1015.4 1012.7 0.0
17/03:30am 15.6 16.6 13.1 85 1.4 CALM 0 6 0 3 1015.6 1013.0 0.0
17/03:00am 15.6 16.5 13.0 84 1.5 CALM 0 0 0 0 1015.6 1013.0 0.0
17/02:30am 15.7 16.5 12.7 82 1.7 CALM 0 0 0 0 1015.8 1013.2 0.0
17/02:00am 16.4 17.4 13.3 82 1.8 CALM 0 6 0 3 1016.1 1013.5 0.0
17/01:30am 16.5 17.1 13.2 81 1.9 E 2 9 1 5 1016.4 1013.8 0.0
17/01:00am 16.8 17.5 13.3 80 2.0 SE 2 7 1 4 1016.6 1014.0 0.0
17/12:30am 17.3 17.0 13.3 77 2.3 SE 7 11 4 6 1016.9 1014.3 0.0
17/12:00am 17.4 18.0 13.2 76 2.4 ESE 2 9 1 5 1017.5 1014.9 0.0
 
Date/Time
EST
Temp
°C
App
Temp
°C
Dew
Point
°C
Rel
Hum
%
Delta-T
°C
Wind Press
QNH
hPa
Press
MSL
hPa
Rain since
9am
mm
Dir  Spd
km/h
Gust
km/h
Spd
kts
Gust
kts
16/11:30pm 17.9 17.6 13.2 74 2.7 SE 7 9 4 5 1017.7 1015.1 0.0
16/11:00pm 18.2 18.0 13.0 71 3.0 ESE 6 11 3 6 1017.8 1015.2 0.0
16/10:30pm 18.5 18.0 12.7 69 3.3 SE 7 13 4 7 1018.0 1015.4 0.0
16/10:00pm 18.8 18.4 12.9 68 3.4 ESE 7 11 4 6 1018.2 1015.6 0.0
16/09:30pm 19.7 19.0 13.1 65 3.8 ESE 9 17 5 9 1018.2 1015.6 0.0
16/09:00pm 20.0 19.5 13.7 67 3.7 SE 9 17 5 9 1018.0 1015.4 0.0
16/08:30pm 20.7 20.9 14.1 66 3.9 ESE 6 11 3 6 1017.8 1015.2 0.0
16/08:00pm 21.2 20.7 13.7 62 4.4 ESE 9 13 5 7 1017.5 1014.9 0.0
16/07:30pm 22.0 21.2 14.1 61 4.7 ESE 11 17 6 9 1017.3 1014.6 0.0
16/07:00pm 22.7 22.3 14.0 58 5.2 ESE 9 19 5 10 1016.8 1014.2 0.0
16/06:30pm 23.6 22.4 13.9 54 5.8 SE 13 24 7 13 1016.4 1013.8 0.0
16/06:00pm 24.8 23.2 13.8 50 6.6 SE 15 24 8 13 1016.0 1013.4 0.0
16/05:30pm 25.6 23.1 13.6 47 7.2 SE 19 30 10 16 1015.8 1013.2 0.0
16/05:00pm 26.6 24.6 12.8 42 8.2 SE 15 22 8 12 1015.8 1013.2 0.0
16/04:30pm 27.5 24.7 12.7 40 8.8 SE 19 32 10 17 1015.8 1013.2 0.0
16/04:00pm 28.1 25.5 12.0 36 9.5 SE 17 28 9 15 1015.7 1013.1 0.0
16/03:30pm 29.4 26.8 12.1 34 10.3 SE 17 28 9 15 1015.7 1013.1 0.0
16/03:00pm 28.1 27.0 11.8 36 9.6 ESE 9 22 5 12 1015.7 1013.1 0.0
16/02:30pm 27.8 25.2 12.0 37 9.3 SE 17 26 9 14 1016.2 1013.6 0.0
16/02:00pm 27.2 24.2 11.9 38 9.0 SE 19 30 10 16 1016.8 1014.2 0.0
16/01:30pm 26.7 24.3 12.7 42 8.3 SE 17 28 9 15 1017.5 1014.9 0.0
16/01:00pm 26.0 23.7 13.1 44 7.7 SE 17 35 9 19 1018.1 1015.5 0.0
16/12:30pm 25.7 23.6 13.7 47 7.2 SE 17 28 9 15 1018.6 1016.0 0.0
16/12:00pm 25.4 23.2 14.3 50 6.7 SE 19 28 10 15 1019.2 1016.6 0.0
16/11:30am 24.1 21.8 14.1 53 6.0 SE 19 33 10 18 1019.6 1017.0 0.0
16/11:00am 25.3 23.5 13.4 47 7.1 SE 15 33 8 18 1019.6 1017.0 0.0
16/10:30am 23.5 21.6 14.1 55 5.6 SE 17 28 9 15 1020.2 1017.6 0.0
16/10:00am 22.7 20.7 14.0 58 5.2 SE 17 28 9 15 1020.5 1017.9 0.0
16/09:30am 22.3 19.9 13.9 59 5.0 SE 19 30 10 16 1020.5 1017.9 0.0
16/09:00am 22.0 19.4 13.7 59 4.9 SE 20 32 11 17 1020.4 1017.8 0.0
16/08:30am 21.6 19.0 13.2 59 4.9 SE 19 32 10 17 1020.2 1017.6 0.0
16/08:00am 21.0 18.2 13.1 60 4.6 SE 20 32 11 17 1019.9 1017.3 0.0
16/07:30am 20.4 17.5 13.0 62 4.3 SE 20 32 11 17 1019.9 1017.3 0.0
16/07:00am 19.5 16.9 13.3 67 3.6 SE 19 28 10 15 1019.7 1017.1 0.0
16/06:30am 18.8 17.1 13.6 72 3.0 SE 15 24 8 13 1019.6 1017.0 0.0
16/06:00am 17.5 16.2 13.7 78 2.2 SE 13 20 7 11 1019.3 1016.8 0.0
16/05:30am 17.2 16.4 13.9 81 1.9 SE 11 15 6 8 1018.9 1016.3 0.0
16/05:00am 17.5 16.2 13.7 78 2.2 SE 13 20 7 11 1018.6 1016.0 0.0
16/04:30am 17.3 16.0 13.7 79 2.1 SE 13 19 7 10 1018.6 1016.0 0.0
16/04:00am 17.5 15.8 13.5 77 2.3 SE 15 24 8 13 1018.5 1015.9 0.0
16/03:30am 17.4 16.0 13.4 77 2.3 SE 13 20 7 11 1018.8 1016.2 0.0
16/03:00am 16.9 16.2 13.2 79 2.1 SE 9 13 5 7 1018.9 1016.3 0.0
16/02:30am 17.1 16.4 13.1 77 2.3 SE 9 17 5 9 1019.2 1016.6 0.0
16/02:00am 17.0 16.6 13.0 77 2.3 SE 7 13 4 7 1019.5 1016.9 0.0
16/01:30am 17.2 16.5 13.2 77 2.3 SE 9 13 5 7 1019.7 1017.1 0.0
16/01:00am 17.8 15.7 12.3 70 3.1 SE 15 22 8 12 1019.9 1017.3 0.0
16/12:30am 17.9 15.4 11.2 65 3.7 SE 15 22 8 12 1020.0 1017.4 0.0
16/12:00am 17.4 15.9 10.6 64 3.7 SE 9 15 5 8 1020.4 1017.8 0.0
 
Date/Time
EST
Temp
°C
App
Temp
°C
Dew
Point
°C
Rel
Hum
%
Delta-T
°C
Wind Press
QNH
hPa
Press
MSL
hPa
Rain since
9am
mm
Dir  Spd
km/h
Gust
km/h
Spd
kts
Gust
kts
15/11:30pm 17.6 16.0 10.2 62 4.0 ESE 9 15 5 8 1020.7 1018.1 0.0
15/11:00pm 18.5 16.2 10.5 59 4.4 SE 13 24 7 13 1020.9 1018.3 0.0
15/10:30pm 18.7 17.0 11.3 62 4.1 SE 11 24 6 13 1021.1 1018.5 0.0
15/10:00pm 19.0 17.2 12.1 64 3.9 ESE 13 22 7 12 1021.2 1018.7 0.0
15/09:30pm 19.0 17.8 11.7 62 4.1 ESE 9 20 5 11 1021.2 1018.7 0.0
15/09:00pm 19.7 18.1 11.7 60 4.5 ESE 11 20 6 11 1021.2 1018.7 0.0
15/08:30pm 20.3 18.4 11.8 58 4.8 ESE 13 24 7 13 1020.9 1018.3 0.0
15/08:00pm 20.9 18.4 12.2 57 5.0 ESE 17 26 9 14 1020.5 1017.9 0.0
15/07:30pm 21.7 19.6 12.3 55 5.4 ESE 15 26 8 14 1020.2 1017.6 0.0
15/07:00pm 22.7 20.4 11.9 50 6.2 ESE 15 28 8 15 1019.6 1017.0 0.0
15/06:30pm 23.7 21.4 11.7 47 6.9 ESE 15 26 8 14 1018.9 1016.3 0.0
15/06:00pm 24.9 21.9 11.8 44 7.6 SE 19 30 10 16 1018.5 1015.9 0.0
15/05:30pm 26.3 23.0 10.8 37 8.9 SE 19 30 10 16 1017.9 1015.3 0.0
15/05:00pm 27.3 24.2 10.4 34 9.7 SE 17 32 9 17 1017.6 1015.0 0.0
15/04:30pm 28.0 25.0 10.7 34 10.0 SE 17 30 9 16 1017.3 1014.6 0.0
15/04:00pm 29.1 25.7 11.1 32 10.5 SE 20 33 11 18 1017.3 1014.6 0.0
15/03:30pm 29.0 25.9 11.5 33 10.3 SE 19 35 10 19 1017.3 1014.6 0.0
15/03:00pm 29.3 26.0 11.0 32 10.7 SE 19 33 10 18 1017.3 1014.6 0.0
15/02:30pm 29.6 26.0 10.7 31 11.0 SE 20 32 11 17 1017.4 1014.7 0.0
15/02:00pm 30.1 27.1 10.7 30 11.3 SSE 17 30 9 16 1017.7 1015.1 0.0
15/01:30pm 29.4 26.4 10.6 31 10.9 SE 17 30 9 16 1018.1 1015.5 0.0
15/01:00pm 29.1 25.7 10.6 31 10.7 SE 19 30 10 16 1018.5 1015.9 0.0
15/12:30pm 29.4 26.3 10.4 30 11.0 SSE 17 32 9 17 1018.8 1016.2 0.0
15/12:00pm 28.3 25.2 10.4 32 10.3 SE 17 32 9 17 1019.2 1016.6 0.0
15/11:30am 26.8 23.9 11.0 37 9.1 SE 17 28 9 15 1019.8 1017.2 0.0
15/11:00am 27.4 24.2 11.2 36 9.4 SE 19 32 10 17 1020.2 1017.6 0.0
15/10:30am 26.1 23.1 11.9 41 8.3 SE 19 32 10 17 1020.5 1017.9 0.0
15/10:00am 25.1 22.0 12.3 45 7.5 SE 20 35 11 19 1020.9 1018.3 0.0
15/09:30am 24.1 21.1 12.0 46 7.0 SE 19 30 10 16 1021.1 1018.5 0.0
15/09:00am 23.9 20.9 12.4 48 6.7 SE 20 35 11 19 1021.1 1018.5 0.0
15/08:30am 22.7 19.7 12.7 53 5.8 SE 20 37 11 20 1021.0 1018.4 0.0
15/08:00am 21.2 17.2 13.1 60 4.7 SE 26 39 14 21 1020.9 1018.3 0.0
15/07:30am 20.6 17.4 13.2 62 4.3 SE 22 37 12 20 1020.8 1018.2 0.0
15/07:00am 19.8 17.0 14.2 70 3.3 SE 22 35 12 19 1020.6 1018.0 0.0
15/06:30am 18.9 16.6 14.1 73 2.8 SE 19 32 10 17 1020.3 1017.7 0.0
15/06:00am 18.4 16.0 14.3 77 2.4 SE 20 37 11 20 1020.0 1017.4 0.0
15/05:30am 18.1 16.3 14.4 79 2.2 SE 17 30 9 16 1019.6 1017.0 0.0
15/05:00am 18.3 16.5 14.4 78 2.3 SE 17 28 9 15 1019.2 1016.6 0.0
15/04:30am 18.4 16.2 14.3 77 2.4 SE 19 30 10 16 1019.0 1016.4 0.0
15/04:00am 18.3 16.5 14.4 78 2.3 SE 17 24 9 13 1018.8 1016.2 0.0
15/03:30am 18.4 16.2 14.5 78 2.3 SE 19 28 10 15 1018.8 1016.2 0.0
15/03:00am 18.5 16.3 14.4 77 2.4 SSE 19 32 10 17 1018.8 1016.2 0.0
15/02:30am 18.6 16.8 14.5 77 2.4 SE 17 28 9 15 1018.8 1016.2 0.0
15/02:00am 18.6 16.7 14.2 75 2.6 SE 17 26 9 14 1018.8 1016.2 0.0
15/01:30am 18.6 16.3 14.0 74 2.7 SSE 19 28 10 15 1018.8 1016.2 0.0
15/01:00am 18.8 16.8 14.0 73 2.8 SE 17 30 9 16 1018.9 1016.3 0.0
15/12:30am 18.9 16.9 13.9 73 2.9 SE 17 28 9 15 1019.1 1016.5 0.0
15/12:00am 19.1 16.7 13.8 71 3.1 SE 19 26 10 14 1019.2 1016.6 0.0

Latest Capital City Observations: Canberra | Sydney | Melbourne | Brisbane | Adelaide | Perth | Hobart | Darwin

Other Formats:

Comma delimited format used in spreadsheet applications
http://www.bom.gov.au/fwo/IDQ60901/IDQ60901.94555.axf

JavaScript Object Notation format (JSON) in row-major order
http://www.bom.gov.au/fwo/IDQ60901/IDQ60901.94555.json